createdAt,value
2018-09-19T00:00:23.975Z,16.70
2018-09-19T00:01:29.480Z,16.70
2018-09-19T00:02:34.950Z,16.70
2018-09-19T00:03:40.414Z,16.70
2018-09-19T00:04:45.864Z,16.70
2018-09-19T00:05:51.269Z,16.70
2018-09-19T00:06:56.801Z,16.70
2018-09-19T00:08:02.214Z,16.70
2018-09-19T00:09:11.126Z,16.70
2018-09-19T00:10:16.553Z,16.60
2018-09-19T00:11:21.960Z,16.70
2018-09-19T00:12:27.419Z,16.60
2018-09-19T00:13:32.895Z,16.60
2018-09-19T00:14:38.353Z,16.60
2018-09-19T00:15:43.760Z,16.60
2018-09-19T00:16:49.198Z,16.60
2018-09-19T00:17:54.636Z,16.60
2018-09-19T00:19:00.195Z,16.60
2018-09-19T00:20:05.732Z,16.60
2018-09-19T00:21:11.110Z,16.60
2018-09-19T00:22:16.570Z,16.60
2018-09-19T00:23:22.016Z,16.60
2018-09-19T00:24:27.415Z,16.60
2018-09-19T00:25:32.877Z,16.60
2018-09-19T00:26:38.443Z,16.60
2018-09-19T00:27:43.908Z,16.60
2018-09-19T00:28:49.494Z,16.60
2018-09-19T00:29:54.946Z,16.60
2018-09-19T00:31:00.458Z,16.60
2018-09-19T00:32:05.877Z,16.60
2018-09-19T00:33:11.377Z,16.60
2018-09-19T00:34:16.781Z,16.60
2018-09-19T00:35:22.208Z,16.60
2018-09-19T00:36:27.642Z,16.60
2018-09-19T00:37:33.116Z,16.70
2018-09-19T00:38:38.651Z,16.60
2018-09-19T00:39:44.156Z,16.60
2018-09-19T00:40:49.607Z,16.60
2018-09-19T00:41:55.126Z,16.60
2018-09-19T00:43:00.557Z,16.60
2018-09-19T00:44:06.210Z,16.60
2018-09-19T00:45:11.666Z,16.60
2018-09-19T00:46:17.332Z,16.60
2018-09-19T00:47:22.810Z,16.50
2018-09-19T00:48:28.517Z,16.50
2018-09-19T00:49:34.017Z,16.50
2018-09-19T00:50:39.529Z,16.50
2018-09-19T00:51:45.009Z,16.50
2018-09-19T00:52:50.519Z,16.50
2018-09-19T00:53:56.228Z,16.50
2018-09-19T00:55:01.699Z,16.50
2018-09-19T00:56:07.172Z,16.50
2018-09-19T00:57:12.612Z,16.50
2018-09-19T00:58:18.076Z,16.40
2018-09-19T00:59:23.526Z,16.50
2018-09-19T01:00:29.103Z,16.40
2018-09-19T01:01:34.658Z,16.40
2018-09-19T01:02:40.081Z,16.40
2018-09-19T01:03:45.517Z,16.40
2018-09-19T01:04:51.036Z,16.40
2018-09-19T01:05:56.517Z,16.40
2018-09-19T01:07:02.021Z,16.40
2018-09-19T01:08:07.528Z,16.40
2018-09-19T01:09:12.955Z,16.40
2018-09-19T01:10:18.389Z,16.40
2018-09-19T01:11:23.792Z,16.40
2018-09-19T01:12:29.239Z,16.40
2018-09-19T01:13:34.702Z,16.40
2018-09-19T01:14:40.130Z,16.30
2018-09-19T01:15:45.671Z,16.40
2018-09-19T01:16:51.070Z,16.40
2018-09-19T01:17:56.576Z,16.40
2018-09-19T01:19:02.453Z,16.40
2018-09-19T01:20:08.069Z,16.40
2018-09-19T01:21:13.493Z,16.40
2018-09-19T01:22:18.905Z,16.40
2018-09-19T01:23:24.296Z,16.40
2018-09-19T01:24:29.820Z,16.40
2018-09-19T01:25:35.323Z,16.40
2018-09-19T01:26:40.855Z,16.40
2018-09-19T01:27:46.454Z,16.40
2018-09-19T01:28:51.915Z,16.40
2018-09-19T01:29:57.462Z,16.30
2018-09-19T01:31:02.912Z,16.30
2018-09-19T01:32:08.793Z,16.30
2018-09-19T01:33:14.222Z,16.30
2018-09-19T01:34:19.648Z,16.20
2018-09-19T01:35:25.170Z,16.20
2018-09-19T01:36:30.606Z,16.20
2018-09-19T01:37:42.259Z,16.20
2018-09-19T01:38:47.720Z,16.20
2018-09-19T01:39:53.161Z,16.10
2018-09-19T01:40:58.601Z,16.10
2018-09-19T01:42:04.082Z,16.10
2018-09-19T01:43:09.825Z,16.10
2018-09-19T01:44:15.350Z,16.10
2018-09-19T01:45:20.740Z,16.10
2018-09-19T01:46:26.309Z,16.10
2018-09-19T01:47:31.697Z,16.00
2018-09-19T01:48:37.553Z,16.00
2018-09-19T01:49:43.141Z,16.00
2018-09-19T01:50:48.591Z,16.10
2018-09-19T01:51:54.909Z,16.00
2018-09-19T01:53:00.414Z,16.10
2018-09-19T01:54:05.914Z,16.00
2018-09-19T01:55:11.416Z,16.00
2018-09-19T01:56:16.916Z,16.00
2018-09-19T01:57:22.350Z,16.00
2018-09-19T01:58:27.765Z,16.00
2018-09-19T01:59:33.564Z,16.00
2018-09-19T02:00:38.983Z,16.00
2018-09-19T02:01:44.424Z,15.90
2018-09-19T02:02:49.979Z,16.00
2018-09-19T02:03:55.396Z,16.00
2018-09-19T02:05:00.954Z,15.90
2018-09-19T02:06:06.691Z,15.90
2018-09-19T02:07:12.115Z,15.90
2018-09-19T02:08:17.617Z,15.90
2018-09-19T02:09:23.078Z,15.90
2018-09-19T02:10:28.534Z,16.00
2018-09-19T02:11:33.987Z,15.90
2018-09-19T02:12:39.401Z,15.90
2018-09-19T02:13:45.090Z,15.90
2018-09-19T02:14:50.552Z,16.00
2018-09-19T02:15:56.277Z,15.90
2018-09-19T02:17:01.793Z,15.90
2018-09-19T02:18:06.793Z,15.90
2018-09-19T02:19:12.328Z,15.90
2018-09-19T02:20:17.732Z,15.90
2018-09-19T02:21:23.210Z,15.90
2018-09-19T02:22:28.635Z,15.90
2018-09-19T02:23:34.073Z,15.90
2018-09-19T02:24:39.504Z,15.90
2018-09-19T02:25:45.012Z,15.90
2018-09-19T02:26:50.480Z,15.80
2018-09-19T02:27:56.056Z,15.80
2018-09-19T02:29:01.495Z,15.80
2018-09-19T02:30:07.034Z,15.70
2018-09-19T02:31:12.476Z,15.70
2018-09-19T02:32:17.906Z,15.70
2018-09-19T02:33:23.310Z,15.70
2018-09-19T02:34:28.820Z,15.70
2018-09-19T02:35:34.302Z,15.70
2018-09-19T02:36:39.733Z,15.70
2018-09-19T02:37:45.306Z,15.70
2018-09-19T02:38:51.552Z,15.70
2018-09-19T02:39:57.109Z,15.70
2018-09-19T02:41:02.556Z,15.70
2018-09-19T02:42:08.020Z,15.70
2018-09-19T02:43:13.562Z,15.70
2018-09-19T02:44:19.017Z,15.70
2018-09-19T02:45:24.413Z,15.70
2018-09-19T02:46:29.908Z,15.70
2018-09-19T02:47:35.318Z,15.70
2018-09-19T02:48:40.789Z,15.80
2018-09-19T02:49:46.281Z,15.70
2018-09-19T02:50:52.000Z,15.70
2018-09-19T02:51:58.679Z,15.70
2018-09-19T02:53:04.090Z,15.70
2018-09-19T02:54:09.644Z,15.70
2018-09-19T02:55:15.282Z,15.70
2018-09-19T02:56:20.697Z,15.70
2018-09-19T02:57:26.124Z,15.70
2018-09-19T02:58:31.626Z,15.70
2018-09-19T02:59:37.089Z,15.70
2018-09-19T03:00:42.521Z,15.70
2018-09-19T03:01:47.991Z,15.70
2018-09-19T03:02:53.373Z,15.60
2018-09-19T03:03:58.858Z,15.60
2018-09-19T03:05:04.309Z,15.60
2018-09-19T03:06:09.809Z,15.60
2018-09-19T03:07:15.337Z,15.60
2018-09-19T03:08:20.817Z,15.60
2018-09-19T03:09:26.320Z,15.60
2018-09-19T03:10:31.776Z,15.60
2018-09-19T03:11:37.253Z,15.50
2018-09-19T03:12:42.880Z,15.50
2018-09-19T03:13:48.293Z,15.50
2018-09-19T03:14:53.861Z,15.50
2018-09-19T03:15:59.448Z,15.50
2018-09-19T03:17:04.965Z,15.50
2018-09-19T03:18:10.386Z,15.50
2018-09-19T03:19:15.797Z,15.50
2018-09-19T03:20:21.272Z,15.40
2018-09-19T03:21:26.698Z,15.40
2018-09-19T03:22:32.208Z,15.40
2018-09-19T03:23:37.673Z,15.40
2018-09-19T03:24:43.145Z,15.40
2018-09-19T03:25:48.822Z,15.40
2018-09-19T03:26:54.344Z,15.40
2018-09-19T03:27:59.753Z,15.40
2018-09-19T03:29:05.167Z,15.40
2018-09-19T03:30:10.667Z,15.40
2018-09-19T03:31:16.189Z,15.40
2018-09-19T03:32:21.661Z,15.30
2018-09-19T03:33:27.068Z,15.30
2018-09-19T03:34:32.557Z,15.30
2018-09-19T03:35:38.035Z,15.30
2018-09-19T03:36:43.818Z,15.30
2018-09-19T03:37:49.240Z,15.30
2018-09-19T03:38:54.837Z,15.30
2018-09-19T03:40:00.251Z,15.30
2018-09-19T03:41:05.792Z,15.30
2018-09-19T03:42:11.461Z,15.30
2018-09-19T03:43:16.888Z,15.30
2018-09-19T03:44:22.359Z,15.30
2018-09-19T03:45:27.794Z,15.30
2018-09-19T03:46:33.197Z,15.30
2018-09-19T03:47:38.624Z,15.30
2018-09-19T03:48:44.065Z,15.30
2018-09-19T03:49:49.456Z,15.30
2018-09-19T03:50:54.861Z,15.20
2018-09-19T03:52:00.273Z,15.20
2018-09-19T03:53:05.977Z,15.20
2018-09-19T03:54:11.465Z,15.20
2018-09-19T03:55:17.010Z,15.20
2018-09-19T03:56:22.436Z,15.20
2018-09-19T03:57:28.025Z,15.20
2018-09-19T03:58:33.446Z,15.20
2018-09-19T03:59:38.949Z,15.20
2018-09-19T04:00:44.563Z,15.20
2018-09-19T04:01:50.206Z,15.20
2018-09-19T04:02:55.787Z,15.10
2018-09-19T04:04:01.207Z,15.10
2018-09-19T04:05:06.726Z,15.10
2018-09-19T04:06:12.151Z,15.10
2018-09-19T04:07:17.605Z,15.10
2018-09-19T04:08:23.097Z,15.10
2018-09-19T04:09:28.615Z,15.10
2018-09-19T04:10:34.140Z,15.10
2018-09-19T04:11:39.872Z,15.10
2018-09-19T04:12:45.297Z,15.10
2018-09-19T04:13:50.844Z,15.10
2018-09-19T04:14:56.257Z,15.10
2018-09-19T04:16:01.708Z,15.10
2018-09-19T04:17:07.229Z,15.10
2018-09-19T04:18:12.692Z,15.10
2018-09-19T04:19:18.089Z,15.00
2018-09-19T04:20:23.514Z,15.00
2018-09-19T04:21:28.960Z,15.00
2018-09-19T04:22:34.680Z,15.00
2018-09-19T04:23:40.133Z,15.00
2018-09-19T04:24:45.576Z,15.00
2018-09-19T04:25:51.100Z,15.00
2018-09-19T04:26:56.799Z,15.00
2018-09-19T04:28:02.268Z,15.00
2018-09-19T04:29:07.820Z,15.00
2018-09-19T04:30:13.519Z,14.90
2018-09-19T04:31:18.962Z,14.90
2018-09-19T04:32:24.728Z,14.90
2018-09-19T04:33:30.238Z,14.90
2018-09-19T04:34:35.697Z,14.90
2018-09-19T04:35:41.118Z,14.90
2018-09-19T04:36:46.545Z,14.90
2018-09-19T04:37:52.359Z,14.90
2018-09-19T04:38:57.805Z,14.90
2018-09-19T04:40:03.252Z,14.90
2018-09-19T04:41:08.741Z,14.90
2018-09-19T04:42:14.209Z,14.80
2018-09-19T04:43:19.673Z,14.90
2018-09-19T04:44:25.060Z,14.80
2018-09-19T04:45:30.528Z,14.80
2018-09-19T04:46:36.322Z,14.80
2018-09-19T04:47:41.965Z,14.80
2018-09-19T04:48:47.444Z,14.80
2018-09-19T04:49:52.974Z,14.80
2018-09-19T04:50:58.376Z,14.80
2018-09-19T04:52:03.995Z,14.80
2018-09-19T04:53:09.510Z,14.80
2018-09-19T04:54:14.988Z,14.80
2018-09-19T04:55:20.417Z,14.80
2018-09-19T04:56:25.910Z,14.80
2018-09-19T04:57:31.350Z,14.80
2018-09-19T04:58:36.874Z,14.70
2018-09-19T04:59:42.467Z,14.70
2018-09-19T05:00:47.873Z,14.70
2018-09-19T05:01:53.288Z,14.80
2018-09-19T05:02:58.815Z,14.80
2018-09-19T05:04:04.335Z,14.70
2018-09-19T05:05:09.986Z,14.70
2018-09-19T05:06:15.401Z,14.80
2018-09-19T05:07:20.991Z,14.80
2018-09-19T05:08:26.446Z,14.80
2018-09-19T05:09:32.289Z,14.80
2018-09-19T05:10:38.066Z,14.80
2018-09-19T05:11:43.489Z,14.80
2018-09-19T05:12:48.890Z,14.80
2018-09-19T05:13:54.525Z,14.80
2018-09-19T05:14:59.953Z,14.80
2018-09-19T05:16:05.497Z,14.80
2018-09-19T05:17:10.984Z,14.80
2018-09-19T05:18:16.339Z,14.80
2018-09-19T05:19:21.930Z,14.80
2018-09-19T05:20:27.416Z,14.80
2018-09-19T05:21:32.853Z,14.80
2018-09-19T05:22:38.387Z,14.80
2018-09-19T05:23:43.958Z,14.80
2018-09-19T05:24:49.460Z,14.80
2018-09-19T05:25:54.945Z,14.80
2018-09-19T05:27:00.512Z,14.80
2018-09-19T05:28:05.954Z,14.80
2018-09-19T05:29:11.400Z,14.80
2018-09-19T05:30:16.929Z,14.80
2018-09-19T05:31:22.397Z,14.80
2018-09-19T05:32:27.971Z,14.80
2018-09-19T05:33:33.509Z,14.80
2018-09-19T05:34:39.523Z,14.80
2018-09-19T05:35:45.016Z,14.80
2018-09-19T05:36:50.504Z,14.80
2018-09-19T05:37:56.016Z,14.80
2018-09-19T05:39:01.465Z,14.90
2018-09-19T05:40:07.015Z,14.80
2018-09-19T05:41:12.400Z,14.90
2018-09-19T05:42:17.965Z,14.90
2018-09-19T05:43:23.636Z,14.90
2018-09-19T05:44:29.102Z,15.00
2018-09-19T05:45:34.542Z,15.00
2018-09-19T05:46:40.049Z,15.00
2018-09-19T05:47:45.543Z,15.00
2018-09-19T05:48:52.178Z,15.00
2018-09-19T05:49:57.670Z,15.10
2018-09-19T05:51:03.216Z,15.10
2018-09-19T05:52:08.678Z,15.10
2018-09-19T05:53:14.352Z,15.10
2018-09-19T05:54:19.775Z,15.20
2018-09-19T05:55:25.362Z,15.20
2018-09-19T05:56:30.980Z,15.20
2018-09-19T05:57:36.365Z,15.20
2018-09-19T05:58:41.963Z,15.20
2018-09-19T05:59:47.837Z,15.30
2018-09-19T06:00:53.374Z,15.20
2018-09-19T06:01:58.842Z,15.30
2018-09-19T06:03:05.156Z,15.30
2018-09-19T06:04:10.648Z,15.40
2018-09-19T06:05:16.109Z,15.40
2018-09-19T06:06:21.541Z,15.40
2018-09-19T06:07:27.006Z,15.40
2018-09-19T06:08:32.539Z,15.40
2018-09-19T06:09:38.140Z,15.40
2018-09-19T06:10:43.582Z,15.50
2018-09-19T06:11:49.049Z,15.50
2018-09-19T06:12:54.520Z,15.50
2018-09-19T06:13:59.954Z,15.60
2018-09-19T06:15:05.599Z,15.60
2018-09-19T06:16:11.143Z,15.60
2018-09-19T06:17:16.621Z,15.60
2018-09-19T06:18:22.060Z,15.70
2018-09-19T06:19:27.740Z,15.70
2018-09-19T06:20:33.273Z,15.70
2018-09-19T06:21:38.701Z,15.70
2018-09-19T06:22:44.144Z,15.80
2018-09-19T06:23:49.683Z,15.80
2018-09-19T06:24:55.218Z,15.90
2018-09-19T06:26:00.776Z,15.90
2018-09-19T06:27:06.336Z,15.90
2018-09-19T06:28:11.899Z,15.90
2018-09-19T06:29:17.433Z,16.00
2018-09-19T06:30:22.875Z,16.00
2018-09-19T06:31:28.333Z,16.00
2018-09-19T06:32:33.754Z,16.00
2018-09-19T06:33:39.174Z,16.00
2018-09-19T06:34:44.637Z,16.10
2018-09-19T06:35:50.119Z,16.20
2018-09-19T06:36:55.856Z,16.20
2018-09-19T06:38:01.268Z,16.20
2018-09-19T06:39:09.096Z,16.30
2018-09-19T06:40:14.730Z,16.30
2018-09-19T06:41:20.172Z,16.40
2018-09-19T06:42:25.745Z,16.40
2018-09-19T06:43:31.227Z,16.40
2018-09-19T06:44:36.771Z,16.50
2018-09-19T06:45:42.636Z,16.50
2018-09-19T06:46:48.030Z,16.50
2018-09-19T06:47:53.496Z,16.60
2018-09-19T06:48:58.951Z,16.60
2018-09-19T06:50:04.462Z,16.70
2018-09-19T06:51:10.131Z,16.70
2018-09-19T06:52:15.696Z,16.80
2018-09-19T06:53:21.113Z,16.80
2018-09-19T06:54:26.573Z,16.80
2018-09-19T06:55:32.025Z,16.90
2018-09-19T06:56:37.492Z,16.90
2018-09-19T06:57:42.972Z,16.90
2018-09-19T06:58:48.411Z,17.00
2018-09-19T06:59:54.171Z,17.00
2018-09-19T07:00:59.733Z,17.10
2018-09-19T07:02:05.209Z,17.20
2018-09-19T07:03:10.628Z,17.30
2018-09-19T07:04:16.054Z,17.30
2018-09-19T07:05:21.504Z,17.40
2018-09-19T07:06:26.966Z,17.40
2018-09-19T07:07:32.721Z,17.50
2018-09-19T07:08:38.199Z,17.50
2018-09-19T07:09:43.765Z,17.60
2018-09-19T07:10:49.242Z,17.60
2018-09-19T07:11:54.675Z,17.70
2018-09-19T07:13:00.412Z,17.90
2018-09-19T07:14:06.218Z,18.00
2018-09-19T07:15:11.691Z,18.20
2018-09-19T07:16:17.186Z,18.30
2018-09-19T07:17:22.717Z,18.40
2018-09-19T07:18:28.169Z,18.50
2018-09-19T07:19:33.748Z,18.60
2018-09-19T07:20:39.237Z,18.50
2018-09-19T07:21:44.905Z,18.50
2018-09-19T07:22:50.382Z,18.50
2018-09-19T07:23:55.812Z,18.50
2018-09-19T07:25:01.217Z,18.40
2018-09-19T07:26:06.713Z,18.40
2018-09-19T07:27:12.183Z,18.40
2018-09-19T07:28:17.654Z,18.40
2018-09-19T07:29:23.152Z,18.30
2018-09-19T07:30:28.603Z,18.30
2018-09-19T07:31:34.182Z,18.30
2018-09-19T07:32:39.690Z,18.30
2018-09-19T07:33:45.365Z,18.30
2018-09-19T07:34:50.844Z,18.40
2018-09-19T07:35:56.300Z,18.40
2018-09-19T07:37:01.815Z,18.50
2018-09-19T07:38:07.264Z,18.50
2018-09-19T07:39:12.946Z,18.60
2018-09-19T07:40:18.385Z,18.70
2018-09-19T07:41:23.835Z,18.70
2018-09-19T07:42:29.326Z,18.70
2018-09-19T07:43:34.782Z,18.80
2018-09-19T07:44:40.336Z,18.90
2018-09-19T07:45:45.821Z,18.90
2018-09-19T07:46:51.252Z,18.90
2018-09-19T07:47:56.721Z,19.00
2018-09-19T07:49:02.176Z,19.00
2018-09-19T07:50:08.608Z,19.10
2018-09-19T07:51:14.111Z,19.20
2018-09-19T07:52:19.790Z,19.20
2018-09-19T07:53:29.325Z,19.30
2018-09-19T07:54:34.879Z,19.40
2018-09-19T07:55:40.603Z,19.40
2018-09-19T07:56:46.173Z,19.40
2018-09-19T07:57:51.676Z,19.50
2018-09-19T07:58:57.078Z,19.60
2018-09-19T08:00:02.626Z,19.60
2018-09-19T08:01:08.627Z,19.70
2018-09-19T08:02:14.025Z,19.80
2018-09-19T08:03:19.508Z,19.90
2018-09-19T08:04:25.117Z,19.90
2018-09-19T08:05:30.670Z,19.90
2018-09-19T08:06:36.116Z,20.00
2018-09-19T08:07:41.537Z,20.00
2018-09-19T08:08:46.964Z,20.10
2018-09-19T08:09:52.425Z,20.10
2018-09-19T08:10:57.880Z,20.10
2018-09-19T08:12:03.291Z,20.10
2018-09-19T08:13:08.674Z,20.30
2018-09-19T08:14:14.250Z,20.40
2018-09-19T08:15:20.061Z,20.60
2018-09-19T08:16:25.504Z,20.80
2018-09-19T08:17:31.050Z,20.80
2018-09-19T08:18:36.510Z,20.90
2018-09-19T08:19:42.080Z,21.00
2018-09-19T08:20:47.612Z,20.90
2018-09-19T08:21:53.040Z,21.00
2018-09-19T08:22:58.452Z,21.10
2018-09-19T08:24:03.894Z,21.10
2018-09-19T08:25:09.620Z,21.30
2018-09-19T08:26:15.104Z,21.30
2018-09-19T08:27:20.564Z,21.30
2018-09-19T08:28:25.985Z,21.30
2018-09-19T08:29:31.444Z,21.20
2018-09-19T08:30:36.980Z,21.30
2018-09-19T08:31:42.609Z,21.30
2018-09-19T08:32:48.034Z,21.20
2018-09-19T08:33:53.520Z,21.20
2018-09-19T08:34:59.090Z,21.00
2018-09-19T08:36:04.555Z,21.00
2018-09-19T08:37:09.978Z,21.00
2018-09-19T08:38:15.446Z,21.00
2018-09-19T08:39:20.886Z,21.10
2018-09-19T08:40:26.483Z,21.10
2018-09-19T08:41:31.917Z,21.20
2018-09-19T08:42:37.325Z,21.30
2018-09-19T08:43:42.817Z,21.20
2018-09-19T08:44:48.252Z,21.30
2018-09-19T08:45:53.705Z,21.30
2018-09-19T08:46:59.200Z,21.40
2018-09-19T08:48:04.705Z,21.40
2018-09-19T08:49:10.154Z,21.40
2018-09-19T08:50:15.682Z,21.40
2018-09-19T08:51:21.149Z,21.50
2018-09-19T08:52:26.865Z,21.60
2018-09-19T08:53:32.316Z,21.70
2018-09-19T08:54:37.877Z,21.90
2018-09-19T08:55:43.320Z,22.00
2018-09-19T08:56:49.049Z,22.10
2018-09-19T08:57:54.501Z,22.20
2018-09-19T08:58:59.998Z,22.20
2018-09-19T09:00:05.532Z,22.20
2018-09-19T09:01:11.008Z,22.20
2018-09-19T09:02:16.499Z,22.20
2018-09-19T09:03:22.037Z,22.10
2018-09-19T09:04:27.606Z,22.10
2018-09-19T09:05:33.066Z,22.20
2018-09-19T09:06:38.520Z,22.10
2018-09-19T09:07:43.977Z,22.10
2018-09-19T09:08:49.456Z,22.10
2018-09-19T09:09:54.949Z,22.20
2018-09-19T09:11:00.446Z,22.30
2018-09-19T09:12:06.008Z,22.30
2018-09-19T09:13:11.420Z,22.30
2018-09-19T09:14:17.027Z,22.40
2018-09-19T09:15:22.424Z,22.40
2018-09-19T09:16:27.825Z,22.50
2018-09-19T09:17:33.261Z,22.50
2018-09-19T09:18:38.724Z,22.50
2018-09-19T09:19:44.394Z,22.50
2018-09-19T09:20:49.804Z,22.60
2018-09-19T09:21:55.264Z,22.60
2018-09-19T09:23:00.706Z,22.60
2018-09-19T09:24:06.309Z,22.70
2018-09-19T09:25:11.776Z,22.70
2018-09-19T09:26:17.183Z,22.80
2018-09-19T09:27:22.809Z,22.80
2018-09-19T09:28:28.370Z,22.90
2018-09-19T09:29:33.781Z,23.00
2018-09-19T09:30:39.249Z,23.10
2018-09-19T09:31:44.795Z,23.10
2018-09-19T09:32:50.266Z,23.20
2018-09-19T09:33:55.678Z,23.30
2018-09-19T09:35:01.119Z,23.30
2018-09-19T09:36:06.765Z,23.20
2018-09-19T09:37:12.200Z,23.20
2018-09-19T09:38:17.778Z,23.20
2018-09-19T09:39:23.231Z,23.30
2018-09-19T09:40:28.735Z,23.30
2018-09-19T09:41:34.132Z,23.40
2018-09-19T09:42:39.592Z,23.40
2018-09-19T09:43:45.062Z,23.40
2018-09-19T09:44:50.466Z,23.40
2018-09-19T09:45:56.051Z,23.50
2018-09-19T09:47:01.488Z,23.60
2018-09-19T09:48:07.153Z,23.60
2018-09-19T09:49:12.650Z,23.60
2018-09-19T09:50:18.347Z,23.60
2018-09-19T09:51:23.823Z,23.70
2018-09-19T09:52:29.199Z,23.80
2018-09-19T09:53:34.683Z,23.90
2018-09-19T09:54:40.104Z,24.10
2018-09-19T09:55:45.598Z,24.10
2018-09-19T09:56:51.060Z,24.30
2018-09-19T09:57:56.473Z,24.40
2018-09-19T09:59:01.933Z,24.50
2018-09-19T10:00:07.788Z,24.50
2018-09-19T10:01:13.242Z,24.50
2018-09-19T10:02:18.704Z,24.60
2018-09-19T10:03:24.205Z,24.80
2018-09-19T10:04:29.677Z,24.80
2018-09-19T10:05:35.128Z,24.90
2018-09-19T10:06:40.673Z,24.90
2018-09-19T10:07:46.073Z,24.90
2018-09-19T10:08:51.479Z,24.90
2018-09-19T10:09:57.023Z,24.90
2018-09-19T10:11:02.461Z,24.90
2018-09-19T10:12:07.929Z,24.90
2018-09-19T10:13:13.459Z,24.90
2018-09-19T10:14:18.846Z,24.90
2018-09-19T10:15:24.295Z,25.00
2018-09-19T10:16:29.820Z,25.20
2018-09-19T10:17:35.356Z,25.30
2018-09-19T10:18:41.000Z,25.40
2018-09-19T10:19:46.461Z,25.50
2018-09-19T10:20:51.910Z,25.50
2018-09-19T10:21:57.334Z,25.50
2018-09-19T10:23:02.780Z,25.60
2018-09-19T10:24:07.941Z,25.60
2018-09-19T10:25:13.502Z,25.40
2018-09-19T10:26:18.944Z,25.30
2018-09-19T10:27:24.343Z,25.20
2018-09-19T10:28:29.769Z,25.20
2018-09-19T10:29:35.167Z,25.00
2018-09-19T10:30:40.577Z,25.00
2018-09-19T10:31:46.388Z,25.20
2018-09-19T10:32:51.790Z,25.30
2018-09-19T10:33:57.224Z,25.50
2018-09-19T10:35:02.727Z,25.70
2018-09-19T10:36:08.160Z,25.90
2018-09-19T10:37:13.626Z,26.10
2018-09-19T10:38:19.120Z,26.00
2018-09-19T10:39:24.704Z,26.00
2018-09-19T10:40:30.773Z,25.90
2018-09-19T10:41:36.201Z,25.80
2018-09-19T10:42:46.223Z,25.70
2018-09-19T10:43:51.660Z,25.70
2018-09-19T10:44:57.192Z,25.50
2018-09-19T10:46:02.627Z,25.40
2018-09-19T10:47:10.177Z,25.30
2018-09-19T10:48:15.944Z,25.10
2018-09-19T10:49:21.403Z,25.10
2018-09-19T10:50:27.008Z,25.00
2018-09-19T10:51:32.428Z,25.00
2018-09-19T10:52:37.857Z,25.00
2018-09-19T10:53:43.327Z,25.10
2018-09-19T10:54:48.799Z,25.10
2018-09-19T10:55:54.291Z,25.20
2018-09-19T10:56:59.749Z,25.20
2018-09-19T10:58:05.236Z,25.20
2018-09-19T10:59:10.681Z,25.20
2018-09-19T11:00:16.163Z,25.10
2018-09-19T11:01:21.673Z,25.20
2018-09-19T11:02:27.129Z,25.30
2018-09-19T11:03:32.600Z,25.50
2018-09-19T11:04:38.113Z,25.70
2018-09-19T11:05:44.094Z,25.90
2018-09-19T11:06:49.540Z,26.10
2018-09-19T11:07:54.973Z,26.40
2018-09-19T11:09:00.406Z,26.50
2018-09-19T11:10:06.182Z,26.60
2018-09-19T11:11:11.759Z,26.70
2018-09-19T11:12:17.283Z,26.70
2018-09-19T11:13:22.869Z,26.80
2018-09-19T11:14:28.333Z,26.80
2018-09-19T11:15:33.744Z,26.70
2018-09-19T11:16:39.587Z,26.60
2018-09-19T11:17:45.023Z,26.40
2018-09-19T11:18:50.657Z,26.30
2018-09-19T11:19:56.102Z,26.30
2018-09-19T11:21:01.529Z,26.30
2018-09-19T11:22:07.077Z,26.20
2018-09-19T11:23:12.531Z,26.30
2018-09-19T11:24:17.950Z,26.30
2018-09-19T11:25:23.518Z,26.40
2018-09-19T11:26:29.156Z,26.40
2018-09-19T11:27:35.080Z,26.40
2018-09-19T11:28:40.624Z,26.40
2018-09-19T11:29:46.093Z,26.50
2018-09-19T11:30:51.573Z,26.50
2018-09-19T11:31:56.997Z,26.50
2018-09-19T11:33:02.629Z,26.50
2018-09-19T11:34:08.177Z,26.50
2018-09-19T11:35:13.660Z,26.60
2018-09-19T11:36:19.133Z,26.70
2018-09-19T11:37:24.572Z,26.60
2018-09-19T11:38:30.111Z,26.60
2018-09-19T11:39:35.844Z,26.50
2018-09-19T11:40:41.496Z,26.40
2018-09-19T11:41:46.932Z,26.40
2018-09-19T11:42:52.517Z,26.40
2018-09-19T11:43:57.940Z,26.50
2018-09-19T11:45:03.349Z,26.40
2018-09-19T11:46:08.927Z,26.30
2018-09-19T11:47:14.474Z,26.20
2018-09-19T11:48:20.006Z,26.20
2018-09-19T11:49:25.436Z,26.10
2018-09-19T11:50:31.034Z,26.00
2018-09-19T11:51:36.457Z,25.90
2018-09-19T11:52:41.904Z,25.80
2018-09-19T11:53:47.372Z,25.70
2018-09-19T11:54:52.912Z,25.60
2018-09-19T11:55:59.853Z,25.60
2018-09-19T11:57:05.401Z,25.60
2018-09-19T11:58:10.876Z,25.80
2018-09-19T11:59:16.257Z,25.80
2018-09-19T12:00:21.928Z,25.90
2018-09-19T12:01:27.384Z,26.10
2018-09-19T12:02:32.816Z,26.10
2018-09-19T12:03:38.273Z,26.10
2018-09-19T12:04:43.733Z,26.30
2018-09-19T12:05:49.192Z,26.30
2018-09-19T12:06:54.645Z,26.40
2018-09-19T12:08:00.068Z,26.50
2018-09-19T12:09:09.012Z,26.60
2018-09-19T12:10:14.640Z,26.50
2018-09-19T12:11:20.085Z,26.50
2018-09-19T12:12:25.618Z,26.60
2018-09-19T12:13:31.020Z,26.60
2018-09-19T12:14:36.558Z,26.60
2018-09-19T12:15:42.377Z,26.60
2018-09-19T12:16:47.801Z,26.60
2018-09-19T12:17:53.304Z,26.60
2018-09-19T12:18:58.797Z,26.60
2018-09-19T12:20:04.411Z,26.70
2018-09-19T12:21:09.978Z,26.70
2018-09-19T12:22:15.578Z,26.70
2018-09-19T12:23:21.036Z,26.80
2018-09-19T12:24:26.485Z,26.80
2018-09-19T12:25:31.996Z,26.80
2018-09-19T12:26:37.411Z,26.70
2018-09-19T12:27:42.813Z,26.70
2018-09-19T12:28:48.287Z,26.70
2018-09-19T12:29:53.908Z,26.60
2018-09-19T12:30:59.321Z,26.60
2018-09-19T12:32:04.729Z,26.60
2018-09-19T12:33:10.130Z,26.60
2018-09-19T12:34:15.575Z,26.70
2018-09-19T12:35:21.002Z,26.70
2018-09-19T12:36:27.040Z,26.70
2018-09-19T12:37:32.634Z,26.70
2018-09-19T12:38:38.093Z,26.80
2018-09-19T12:39:43.641Z,26.80
2018-09-19T12:40:49.058Z,26.70
2018-09-19T12:41:54.511Z,26.70
2018-09-19T12:42:59.949Z,26.70
2018-09-19T12:44:05.433Z,26.80
2018-09-19T12:45:10.930Z,26.80
2018-09-19T12:46:16.454Z,26.80
2018-09-19T12:47:21.929Z,26.80
2018-09-19T12:48:27.344Z,26.80
2018-09-19T12:49:32.820Z,26.80
2018-09-19T12:50:38.405Z,26.70
2018-09-19T12:51:43.863Z,26.70
2018-09-19T12:52:49.322Z,26.70
2018-09-19T12:53:54.729Z,26.70
2018-09-19T12:55:00.137Z,26.70
2018-09-19T12:56:05.665Z,26.80
2018-09-19T12:57:11.340Z,26.80
2018-09-19T12:58:16.765Z,26.80
2018-09-19T12:59:22.307Z,26.80
2018-09-19T13:00:27.756Z,26.80
2018-09-19T13:01:33.180Z,26.80
2018-09-19T13:02:38.694Z,26.80
2018-09-19T13:03:44.110Z,26.80
2018-09-19T13:04:49.574Z,26.80
2018-09-19T13:05:55.125Z,26.80
2018-09-19T13:07:00.465Z,26.80
2018-09-19T13:08:05.913Z,26.80
2018-09-19T13:09:12.272Z,26.70
2018-09-19T13:10:17.799Z,26.80
2018-09-19T13:11:23.302Z,26.60
2018-09-19T13:12:28.696Z,26.70
2018-09-19T13:13:34.112Z,26.60
2018-09-19T13:14:39.581Z,26.50
2018-09-19T13:15:45.228Z,26.40
2018-09-19T13:16:50.632Z,26.30
2018-09-19T13:17:56.089Z,26.40
2018-09-19T13:19:01.592Z,26.40
2018-09-19T13:20:07.190Z,26.30
2018-09-19T13:21:12.630Z,26.40
2018-09-19T13:22:18.155Z,26.40
2018-09-19T13:23:23.597Z,26.40
2018-09-19T13:24:29.038Z,26.40
2018-09-19T13:25:34.474Z,26.40
2018-09-19T13:26:40.033Z,26.50
2018-09-19T13:27:45.497Z,26.40
2018-09-19T13:28:51.026Z,26.40
2018-09-19T13:29:56.449Z,26.40
2018-09-19T13:31:01.925Z,26.50
2018-09-19T13:32:07.501Z,26.50
2018-09-19T13:33:13.026Z,26.50
2018-09-19T13:34:18.502Z,26.40
2018-09-19T13:35:23.929Z,26.40
2018-09-19T13:36:29.341Z,26.40
2018-09-19T13:37:34.784Z,26.40
2018-09-19T13:38:40.276Z,26.40
2018-09-19T13:39:45.813Z,26.40
2018-09-19T13:40:51.237Z,26.40
2018-09-19T13:41:56.677Z,26.30
2018-09-19T13:43:02.191Z,26.30
2018-09-19T13:44:07.797Z,26.30
2018-09-19T13:45:13.453Z,26.30
2018-09-19T13:46:18.952Z,26.30
2018-09-19T13:47:24.465Z,26.30
2018-09-19T13:48:29.921Z,26.20
2018-09-19T13:49:42.361Z,26.20
2018-09-19T13:51:00.832Z,26.10
2018-09-19T13:52:06.388Z,26.00
2018-09-19T13:53:11.960Z,26.00
2018-09-19T13:54:17.433Z,26.00
2018-09-19T13:55:22.950Z,26.00
2018-09-19T13:56:28.340Z,26.00
2018-09-19T13:57:33.864Z,26.00
2018-09-19T13:58:39.338Z,26.00
2018-09-19T13:59:44.762Z,26.10
2018-09-19T14:00:50.677Z,26.10
2018-09-19T14:01:56.149Z,26.10
2018-09-19T14:03:01.872Z,26.20
2018-09-19T14:04:07.339Z,26.30